Stephanie Dann — WCD9870 — position and weather

sailwx.info

Track history (hours):
 
Tides and Currents Weather Stations Pressure Air Temp Water Temp Dewpoint Dewpoint Depression Visibility Wind Speed Wind Dir Waves Ship Positions

Stephanie Dann

Owner: DANN TOWING CO, TAMPA, FL. More information available from US FCC via Universal Licensing System and Coast Guard Vessel Documentation Center.

Last reported at 2017-Dec-12 02:18 UTC. Time now 2017-Dec-16 18:45 UTC.
Position N 40°57' W 073°54'.

Length 28 m; draft 14 m.

Type: Towing. MMSI: 338871000.

Date/timePositionNaut miles runAvg speedWind from/ knotsBaromVisibWave heightAir tempDewpointWater temp
2017-Dec-12 02:18N 40°57' W 073°54'3 7.4
2017-Dec-12 01:53N 40°54' W 073°55'3 7.3
2017-Dec-12 01:30N 40°51' W 073°57'4 7.4
2017-Dec-12 01:00N 40°48' W 073°59'4 7.8
2017-Dec-12 00:30N 40°44' W 074°01'4 7.8
2017-Dec-12 00:00N 40°41' W 074°03'4 7.9
2017-Dec-11 23:30N 40°39' W 074°07'3 6.6
2017-Dec-11 22:58N 40°38' W 074°12'0 0.0
2017-Dec-11 22:28N 40°38' W 074°12'0 0.0
2017-Dec-11 21:49N 40°38' W 074°12'0 0.0
2017-Dec-11 20:31N 40°38' W 074°12'0 0.0
2017-Dec-11 20:16N 40°38' W 074°12'0 0.0
2017-Dec-11 19:52N 40°38' W 074°12'0 0.0
2017-Dec-11 19:25N 40°38' W 074°12'0 0.5
2017-Dec-11 18:56N 40°38' W 074°12'3 5.8
2017-Dec-11 18:30N 40°39' W 074°08'1 0.9
2017-Dec-11 17:08N 40°39' W 074°07'1 3.8
2017-Dec-11 16:59N 40°39' W 074°07'3 4.5
2017-Dec-11 16:14N 40°38' W 074°12'0 0.4
2017-Dec-11 15:59N 40°39' W 074°12'3 6.5
2017-Dec-11 15:30N 40°39' W 074°07'4 7.8
2017-Dec-11 15:00N 40°40' W 074°03'5 9.7
2017-Dec-11 14:30N 40°45' W 074°01'5 9.9
2017-Dec-11 14:00N 40°49' W 073°58'  
Track history (hours):
 
Tides and Currents Weather Stations Pressure Air Temp Water Temp Dewpoint Dewpoint Depression Visibility Wind Speed Wind Dir Waves Ship Positions

Stephanie Dann

Owner: DANN TOWING CO, TAMPA, FL. More information available from US FCC via Universal Licensing System and Coast Guard Vessel Documentation Center.

Last reported at 2017-Dec-12 02:18 UTC. Time now 2017-Dec-16 18:45 UTC.
Position N 40°57' W 073°54'.

Length 28 m; draft 14 m.

Type: Towing. MMSI: 338871000.

Date/timePositionNaut miles runAvg speedWind from/ knotsBaromVisibWave heightAir tempDewpointWater temp
2017-Dec-12 02:18N 40°57' W 073°54'3 7.4
2017-Dec-12 01:53N 40°54' W 073°55'3 7.3
2017-Dec-12 01:30N 40°51' W 073°57'4 7.4
2017-Dec-12 01:00N 40°48' W 073°59'4 7.8
2017-Dec-12 00:30N 40°44' W 074°01'4 7.8
2017-Dec-12 00:00N 40°41' W 074°03'4 7.9
2017-Dec-11 23:30N 40°39' W 074°07'3 6.6
2017-Dec-11 22:58N 40°38' W 074°12'0 0.0
2017-Dec-11 22:28N 40°38' W 074°12'0 0.0
2017-Dec-11 21:49N 40°38' W 074°12'0 0.0
2017-Dec-11 20:31N 40°38' W 074°12'0 0.0
2017-Dec-11 20:16N 40°38' W 074°12'0 0.0
2017-Dec-11 19:52N 40°38' W 074°12'0 0.0
2017-Dec-11 19:25N 40°38' W 074°12'0 0.5
2017-Dec-11 18:56N 40°38' W 074°12'3 5.8
2017-Dec-11 18:30N 40°39' W 074°08'1 0.9
2017-Dec-11 17:08N 40°39' W 074°07'1 3.8
2017-Dec-11 16:59N 40°39' W 074°07'3 4.5
2017-Dec-11 16:14N 40°38' W 074°12'0 0.4
2017-Dec-11 15:59N 40°39' W 074°12'3 6.5
2017-Dec-11 15:30N 40°39' W 074°07'4 7.8
2017-Dec-11 15:00N 40°40' W 074°03'5 9.7
2017-Dec-11 14:30N 40°45' W 074°01'5 9.9
2017-Dec-11 14:00N 40°49' W 073°58'  

Dump ship's entire track history